Zim Rio Grande — 9HNV9 — position and weather

sailwx.info

Track history (hours):
 
Tides and Currents Weather Stations Pressure Air Temp Water Temp Dewpoint Dewpoint Depression Visibility Wind Speed Wind Dir Waves Ship Positions

Zim Rio Grande

Last reported at 2015-Jan-24 12:33 UTC. Time now 2015-Jan-25 10:20 UTC.
Position N 38°10' E 015°35'.

Length 260 m; draft 10.6 m.

Type: Ship (hazmat cat A). MMSI: 249253000.

Date/timePositionNaut miles runAvg speedWind from/ knotsBaromVisibWave heightAir tempDewpointWater temp
2015-Jan-24 12:33N 38°10' E 015°35'1410.8
2015-Jan-24 11:17N 38°23' E 015°34'1114.8
2015-Jan-24 10:30N 38°31' E 015°23'1615.0
2015-Jan-24 09:26N 38°42' E 015°09'35213.9
2015-Jan-23 08:04N 43°08' E 010°03'714.5
2015-Jan-23 07:33N 43°15' E 010°06'1514.6
2015-Jan-23 06:33N 43°29' E 010°11'7 7.4
2015-Jan-23 05:33N 43°35' E 010°18'0 0.1
2015-Jan-23 04:31N 43°35' E 010°18'0 0.0
2015-Jan-23 03:25N 43°35' E 010°18'0 0.0
2015-Jan-23 02:31N 43°35' E 010°18'0 0.0
2015-Jan-23 01:25N 43°35' E 010°18'0 0.0
2015-Jan-23 00:31N 43°35' E 010°18'0 0.0
2015-Jan-22 23:31N 43°35' E 010°18'0 0.0
2015-Jan-22 22:31N 43°35' E 010°18'0 0.0
2015-Jan-22 21:31N 43°35' E 010°18'0 0.0
2015-Jan-22 20:31N 43°35' E 010°18'0 0.0
2015-Jan-22 19:31N 43°35' E 010°18'0 0.0
2015-Jan-22 18:31N 43°35' E 010°18'0 0.0
2015-Jan-22 17:31N 43°35' E 010°18'0 0.0
2015-Jan-22 16:31N 43°35' E 010°18'0 0.0
2015-Jan-22 15:31N 43°35' E 010°18'0 0.0
2015-Jan-22 14:31N 43°35' E 010°18'0 0.0
2015-Jan-22 13:31N 43°35' E 010°18'0 0.0
2015-Jan-22 12:31N 43°35' E 010°18'0 0.0
2015-Jan-22 11:31N 43°35' E 010°18'0 0.0
2015-Jan-22 10:31N 43°35' E 010°18'0 0.0
2015-Jan-22 09:31N 43°35' E 010°18'0 0.0
2015-Jan-22 08:28N 43°35' E 010°18'1 0.7
2015-Jan-22 07:33N 43°34' E 010°18'9 8.6
2015-Jan-22 06:33N 43°28' E 010°10'1414.4
2015-Jan-22 05:33N 43°18' E 009°55'1514.6
2015-Jan-22 04:33N 43°13' E 009°37'1514.6
2015-Jan-22 03:33N 43°07' E 009°18'9616.0
2015-Jan-21 21:32N 42°35' E 007°15'9515.9
2015-Jan-21 15:32N 42°02' E 005°14'3415.9
2015-Jan-21 13:22N 41°50' E 004°31'1617.5
2015-Jan-21 12:28N 41°45' E 004°11'1415.3
2015-Jan-21 11:33N 41°40' E 003°53'1616.0
2015-Jan-21 10:33N 41°34' E 003°34'1615.7
2015-Jan-21 09:33N 41°29' E 003°14'1915.9
2015-Jan-21 08:22N 41°22' E 002°51'1415.7
2015-Jan-21 07:27N 41°17' E 002°33'1615.9
2015-Jan-21 06:28N 41°12' E 002°13'1415.7
2015-Jan-21 05:33N 41°08' E 001°54'58 3.7
2015-Jan-20 14:05N 40°31' E 000°57'712.2
2015-Jan-20 13:32N 40°24' E 000°54'7312.1
2015-Jan-20 07:33N 39°31' W 000°10'8 8.2
2015-Jan-20 06:33N 39°27' W 000°19'0 0.2
2015-Jan-20 05:32N 39°27' W 000°19'0 0.0
2015-Jan-20 04:32N 39°27' W 000°19'0 0.0
2015-Jan-20 03:33N 39°27' W 000°19'0 0.0
2015-Jan-20 02:32N 39°27' W 000°19'0 0.0
2015-Jan-20 01:30N 39°27' W 000°19'0 0.0
2015-Jan-20 00:32N 39°27' W 000°19'0 0.0
2015-Jan-19 23:32N 39°27' W 000°19'0 0.0
2015-Jan-19 22:32N 39°27' W 000°19'0 0.0
2015-Jan-19 21:32N 39°27' W 000°19'0 0.0
2015-Jan-19 20:32N 39°27' W 000°19'0 0.0
2015-Jan-19 19:32N 39°27' W 000°19'0 0.0
2015-Jan-19 18:32N 39°27' W 000°19'0 0.0
2015-Jan-19 17:32N 39°27' W 000°19'6 6.4
2015-Jan-19 16:33N 39°23' W 000°13'9412.8
2015-Jan-19 09:15N 37°49' W 000°17'1115.2
2015-Jan-19 08:33N 37°41' W 000°25'1615.2
2015-Jan-19 07:31N 37°29' W 000°37'1515.4
2015-Jan-19 06:33N 37°19' W 000°52'22915.0
2015-Jan-18 15:18N 35°59' W 005°19'  
2015-Jan-15 15:15N 39°35' W 027°35'2011.9
2015-Jan-15 13:33N 39°38' W 028°01'1211.9
2015-Jan-15 12:33N 39°39' W 028°17'1211.9
2015-Jan-15 11:33N 39°40' W 028°32'1211.9
2015-Jan-15 10:33N 39°42' W 028°47'1211.9
2015-Jan-15 09:33N 39°43' W 029°03'1211.8
2015-Jan-15 08:33N 39°45' W 029°18'1211.9
2015-Jan-15 07:33N 39°46' W 029°33'1211.8
2015-Jan-15 06:33N 39°48' W 029°48'1211.8
2015-Jan-15 05:31N 39°49' W 030°04'4711.6
2015-Jan-15 01:29N 39°49' W 031°05'1011.3
2015-Jan-15 00:33N 39°50' W 031°19'1111.4
2015-Jan-14 23:33N 39°50' W 031°33'1111.3
2015-Jan-14 22:33N 39°50' W 031°48'1111.1
2015-Jan-14 21:33N 39°50' W 032°03'  
Track history (hours):
 
Tides and Currents Weather Stations Pressure Air Temp Water Temp Dewpoint Dewpoint Depression Visibility Wind Speed Wind Dir Waves Ship Positions

Zim Rio Grande

Last reported at 2015-Jan-24 12:33 UTC. Time now 2015-Jan-25 10:20 UTC.
Position N 38°10' E 015°35'.

Length 260 m; draft 10.6 m.

Type: Ship (hazmat cat A). MMSI: 249253000.

Date/timePositionNaut miles runAvg speedWind from/ knotsBaromVisibWave heightAir tempDewpointWater temp
2015-Jan-24 12:33N 38°10' E 015°35'1410.8
2015-Jan-24 11:17N 38°23' E 015°34'1114.8
2015-Jan-24 10:30N 38°31' E 015°23'1615.0
2015-Jan-24 09:26N 38°42' E 015°09'35213.9
2015-Jan-23 08:04N 43°08' E 010°03'714.5
2015-Jan-23 07:33N 43°15' E 010°06'1514.6
2015-Jan-23 06:33N 43°29' E 010°11'7 7.4
2015-Jan-23 05:33N 43°35' E 010°18'0 0.1
2015-Jan-23 04:31N 43°35' E 010°18'0 0.0
2015-Jan-23 03:25N 43°35' E 010°18'0 0.0
2015-Jan-23 02:31N 43°35' E 010°18'0 0.0
2015-Jan-23 01:25N 43°35' E 010°18'0 0.0
2015-Jan-23 00:31N 43°35' E 010°18'0 0.0
2015-Jan-22 23:31N 43°35' E 010°18'0 0.0
2015-Jan-22 22:31N 43°35' E 010°18'0 0.0
2015-Jan-22 21:31N 43°35' E 010°18'0 0.0
2015-Jan-22 20:31N 43°35' E 010°18'0 0.0
2015-Jan-22 19:31N 43°35' E 010°18'0 0.0
2015-Jan-22 18:31N 43°35' E 010°18'0 0.0
2015-Jan-22 17:31N 43°35' E 010°18'0 0.0
2015-Jan-22 16:31N 43°35' E 010°18'0 0.0
2015-Jan-22 15:31N 43°35' E 010°18'0 0.0
2015-Jan-22 14:31N 43°35' E 010°18'0 0.0
2015-Jan-22 13:31N 43°35' E 010°18'0 0.0
2015-Jan-22 12:31N 43°35' E 010°18'0 0.0
2015-Jan-22 11:31N 43°35' E 010°18'0 0.0
2015-Jan-22 10:31N 43°35' E 010°18'0 0.0
2015-Jan-22 09:31N 43°35' E 010°18'0 0.0
2015-Jan-22 08:28N 43°35' E 010°18'1 0.7
2015-Jan-22 07:33N 43°34' E 010°18'9 8.6
2015-Jan-22 06:33N 43°28' E 010°10'1414.4
2015-Jan-22 05:33N 43°18' E 009°55'1514.6
2015-Jan-22 04:33N 43°13' E 009°37'1514.6
2015-Jan-22 03:33N 43°07' E 009°18'9616.0
2015-Jan-21 21:32N 42°35' E 007°15'9515.9
2015-Jan-21 15:32N 42°02' E 005°14'3415.9
2015-Jan-21 13:22N 41°50' E 004°31'1617.5
2015-Jan-21 12:28N 41°45' E 004°11'1415.3
2015-Jan-21 11:33N 41°40' E 003°53'1616.0
2015-Jan-21 10:33N 41°34' E 003°34'1615.7
2015-Jan-21 09:33N 41°29' E 003°14'1915.9
2015-Jan-21 08:22N 41°22' E 002°51'1415.7
2015-Jan-21 07:27N 41°17' E 002°33'1615.9
2015-Jan-21 06:28N 41°12' E 002°13'1415.7
2015-Jan-21 05:33N 41°08' E 001°54'58 3.7
2015-Jan-20 14:05N 40°31' E 000°57'712.2
2015-Jan-20 13:32N 40°24' E 000°54'7312.1
2015-Jan-20 07:33N 39°31' W 000°10'8 8.2
2015-Jan-20 06:33N 39°27' W 000°19'0 0.2
2015-Jan-20 05:32N 39°27' W 000°19'0 0.0
2015-Jan-20 04:32N 39°27' W 000°19'0 0.0
2015-Jan-20 03:33N 39°27' W 000°19'0 0.0
2015-Jan-20 02:32N 39°27' W 000°19'0 0.0
2015-Jan-20 01:30N 39°27' W 000°19'0 0.0
2015-Jan-20 00:32N 39°27' W 000°19'0 0.0
2015-Jan-19 23:32N 39°27' W 000°19'0 0.0
2015-Jan-19 22:32N 39°27' W 000°19'0 0.0
2015-Jan-19 21:32N 39°27' W 000°19'0 0.0
2015-Jan-19 20:32N 39°27' W 000°19'0 0.0
2015-Jan-19 19:32N 39°27' W 000°19'0 0.0
2015-Jan-19 18:32N 39°27' W 000°19'0 0.0
2015-Jan-19 17:32N 39°27' W 000°19'6 6.4
2015-Jan-19 16:33N 39°23' W 000°13'9412.8
2015-Jan-19 09:15N 37°49' W 000°17'1115.2
2015-Jan-19 08:33N 37°41' W 000°25'1615.2
2015-Jan-19 07:31N 37°29' W 000°37'1515.4
2015-Jan-19 06:33N 37°19' W 000°52'22915.0
2015-Jan-18 15:18N 35°59' W 005°19'  
2015-Jan-15 15:15N 39°35' W 027°35'2011.9
2015-Jan-15 13:33N 39°38' W 028°01'1211.9
2015-Jan-15 12:33N 39°39' W 028°17'1211.9
2015-Jan-15 11:33N 39°40' W 028°32'1211.9
2015-Jan-15 10:33N 39°42' W 028°47'1211.9
2015-Jan-15 09:33N 39°43' W 029°03'1211.8
2015-Jan-15 08:33N 39°45' W 029°18'1211.9
2015-Jan-15 07:33N 39°46' W 029°33'1211.8
2015-Jan-15 06:33N 39°48' W 029°48'1211.8
2015-Jan-15 05:31N 39°49' W 030°04'4711.6
2015-Jan-15 01:29N 39°49' W 031°05'1011.3
2015-Jan-15 00:33N 39°50' W 031°19'1111.4
2015-Jan-14 23:33N 39°50' W 031°33'1111.3
2015-Jan-14 22:33N 39°50' W 031°48'1111.1
2015-Jan-14 21:33N 39°50' W 032°03'  

Dump ship's entire track history